Time;durP1;ratioP1;P1;durP2;ratioP2;P2;SDS_P1;SDS_P2;PMS_P1;PMS_P2;Temp;Humidity;BMP_temperature;BMP_pressure;BME280_temperature;BME280_humidity;BME280_pressure;Samples;Min_cycle;Max_cycle;Signal;HPM_P1;HPM_P2
2021/10/01 00:01:56;;;;;;;0.90;0.30;;;;;;;-142.37;100.00;59669.53;4975080;28;20034;-69
2021/10/01 00:04:23;;;;;;;0.32;0.05;;;;;;;-142.37;100.00;59669.53;4975460;28;20049;-71
2021/10/01 00:06:50;;;;;;;0.50;0.10;;;;;;;-142.37;100.00;59669.53;4974569;28;20082;-70
2021/10/01 00:09:18;;;;;;;0.20;0.20;;;;;;;-142.37;100.00;59669.53;4994051;28;20408;-69
2021/10/01 00:11:52;;;;;;;0.10;0.00;;;;;;;-142.37;100.00;59669.53;4994295;28;20032;-71
2021/10/01 00:14:27;;;;;;;0.52;0.10;;;;;;;-142.37;100.00;59669.53;4994109;28;20046;-69
2021/10/01 00:16:54;;;;;;;1.13;0.60;;;;;;;-142.37;100.00;59669.53;4994057;28;20085;-70
2021/10/01 00:19:22;;;;;;;0.52;0.15;;;;;;;-142.37;100.00;59669.53;4994196;28;20034;-69
2021/10/01 00:21:52;;;;;;;0.30;0.15;;;;;;;-142.37;100.00;59669.53;5029715;28;20399;-70
2021/10/01 00:24:18;;;;;;;0.85;0.10;;;;;;;-142.37;100.00;59669.53;5035535;28;20436;-69
2021/10/01 00:26:54;;;;;;;0.60;0.20;;;;;;;-142.37;100.00;59669.53;5035418;28;20033;-70
2021/10/01 00:29:20;;;;;;;2.13;0.10;;;;;;;-142.37;100.00;59669.53;5035508;28;20063;-70
2021/10/01 00:31:46;;;;;;;1.50;0.10;;;;;;;-142.37;100.00;59669.53;5035495;28;20112;-70
2021/10/01 00:34:13;;;;;;;0.20;0.08;;;;;;;-142.37;100.00;59669.53;5035260;28;20067;-70
2021/10/01 00:36:38;;;;;;;1.00;0.17;;;;;;;-142.37;100.00;59669.53;5035217;28;20048;-69
2021/10/01 00:39:06;;;;;;;0.15;0.10;;;;;;;-142.37;100.00;59669.53;5035055;28;20025;-70
2021/10/01 00:41:33;;;;;;;0.47;0.30;;;;;;;-142.37;100.00;59669.53;5034928;28;20025;-69
2021/10/01 00:44:08;;;;;;;0.20;0.10;;;;;;;-142.37;100.00;59669.53;5035142;28;20472;-71
2021/10/01 00:46:33;;;;;;;1.70;0.20;;;;;;;-142.37;100.00;59669.53;5033991;28;20040;-68
2021/10/01 00:48:59;;;;;;;0.73;0.22;;;;;;;-142.37;100.00;59669.53;5034805;28;20029;-69
2021/10/01 00:51:34;;;;;;;0.52;0.10;;;;;;;-142.37;100.00;59669.53;5051381;28;20025;-71
2021/10/01 00:54:02;;;;;;;0.57;0.10;;;;;;;-142.37;100.00;59669.53;5034850;28;20032;-68
2021/10/01 00:56:30;;;;;;;0.43;0.15;;;;;;;-142.37;100.00;59669.53;5034766;28;20037;-71
2021/10/01 00:59:02;;;;;;;0.43;0.10;;;;;;;-142.37;100.00;59669.53;5033565;28;20459;-68
2021/10/01 01:01:45;;;;;;;0.10;0.10;;;;;;;-142.37;100.00;59669.53;5034752;28;20558;-70
2021/10/01 01:04:12;;;;;;;1.25;0.32;;;;;;;-142.37;100.00;59669.53;5034624;28;20439;-69
2021/10/01 01:06:47;;;;;;;0.43;0.10;;;;;;;-142.37;100.00;59669.53;5034729;28;20036;-70
2021/10/01 01:09:40;;;;;;;0.88;0.10;;;;;;;-142.37;100.00;59669.53;5034656;28;20025;-69
2021/10/01 01:12:23;;;;;;;0.88;0.30;;;;;;;-142.37;100.00;59669.53;5034454;28;20029;-71
2021/10/01 01:15:12;;;;;;;1.00;0.20;;;;;;;-142.37;100.00;59669.53;5034513;28;20029;-69
2021/10/01 01:17:54;;;;;;;0.77;0.10;;;;;;;-142.37;100.00;59669.53;5014650;28;20485;-69
2021/10/01 01:20:31;;;;;;;0.47;0.20;;;;;;;-142.37;100.00;59669.53;5014422;28;20062;-71
2021/10/01 01:23:06;;;;;;;0.28;0.20;;;;;;;-142.37;100.00;59669.53;5014567;28;20097;-69
2021/10/01 01:25:43;;;;;;;0.52;0.17;;;;;;;-142.37;100.00;59669.53;5014964;28;20033;-71
2021/10/01 01:28:13;;;;;;;1.75;0.17;;;;;;;-142.37;100.00;59669.53;5014468;28;20430;-69
2021/10/01 01:30:50;;;;;;;0.55;0.20;;;;;;;-142.37;100.00;59669.53;5014385;28;20117;-70
2021/10/01 01:33:22;;;;;;;0.40;0.22;;;;;;;-142.37;100.00;59669.53;5014643;28;20017;-69
2021/10/01 01:35:56;;;;;;;0.55;0.20;;;;;;;-142.37;100.00;59669.53;5014403;28;20097;-69
2021/10/01 01:38:29;;;;;;;0.50;0.28;;;;;;;-142.37;100.00;59669.53;5014413;28;20026;-70
2021/10/01 01:40:59;;;;;;;0.20;0.10;;;;;;;-142.37;100.00;59669.53;5014443;28;20034;-69
2021/10/01 01:43:39;;;;;;;0.10;0.00;;;;;;;-142.37;100.00;59669.53;5013417;28;20417;-70
2021/10/01 01:46:07;;;;;;;0.10;0.08;;;;;;;-142.37;100.00;59669.53;5014485;28;20475;-69
2021/10/01 01:48:34;;;;;;;0.40;0.10;;;;;;;-142.37;100.00;59669.53;5014498;28;20068;-70
2021/10/01 01:51:01;;;;;;;0.08;0.08;;;;;;;-142.37;100.00;59669.53;5014629;28;20018;-71
2021/10/01 01:53:37;;;;;;;0.45;0.30;;;;;;;-142.37;100.00;59669.53;5013011;28;20125;-71
2021/10/01 01:56:04;;;;;;;0.82;0.40;;;;;;;-142.37;100.00;59669.53;5014167;28;20072;-69
2021/10/01 01:58:36;;;;;;;1.00;0.20;;;;;;;-142.37;100.00;59669.53;5014115;28;20469;-70
2021/10/01 02:01:15;;;;;;;0.55;0.13;;;;;;;-142.37;100.00;59669.53;5014209;28;20037;-69
2021/10/01 02:03:42;;;;;;;1.55;0.20;;;;;;;-142.37;100.00;59669.53;5014140;28;20022;-70
2021/10/01 02:06:16;;;;;;;0.85;0.30;;;;;;;-142.37;100.00;59669.53;5014384;28;20026;-70
2021/10/01 02:08:43;;;;;;;0.38;0.20;;;;;;;-142.37;100.00;59669.53;5014215;28;20030;-69
2021/10/01 02:11:11;;;;;;;1.33;0.30;;;;;;;-142.37;100.00;59669.53;5014182;28;20028;-71
2021/10/01 02:13:40;;;;;;;0.63;0.13;;;;;;;-142.37;100.00;59669.53;5014251;28;20056;-70
2021/10/01 02:16:07;;;;;;;0.22;0.10;;;;;;;-142.37;100.00;59669.53;5021849;28;20496;-70
2021/10/01 02:18:36;;;;;;;0.57;0.38;;;;;;;-142.37;100.00;59669.53;5033828;28;20038;-69
2021/10/01 02:21:13;;;;;;;0.70;0.45;;;;;;;-142.37;100.00;59669.53;5033778;28;20025;-70
2021/10/01 02:23:39;;;;;;;0.70;0.38;;;;;;;-142.37;100.00;59669.53;5033698;28;20025;-69
2021/10/01 02:29:17;;;;;;;0.43;0.35;;;;;;;-142.37;100.00;59669.53;5033744;28;20064;-69
2021/10/01 02:32:01;;;;;;;0.65;0.00;;;;;;;-142.37;100.00;59669.53;5014442;28;20040;-71
2021/10/01 02:34:37;;;;;;;0.40;0.20;;;;;;;-142.37;100.00;59669.53;5015469;28;20038;-68
2021/10/01 02:37:07;;;;;;;0.40;0.10;;;;;;;-142.37;100.00;59669.53;5015775;28;20037;-70
2021/10/01 02:39:47;;;;;;;0.45;0.30;;;;;;;-142.37;100.00;59669.53;5015434;28;20485;-69
2021/10/01 02:42:16;;;;;;;0.70;0.15;;;;;;;-142.37;100.00;59669.53;5015494;28;20040;-71
2021/10/01 02:44:45;;;;;;;0.73;0.20;;;;;;;-142.37;100.00;59669.53;5015538;28;20053;-70
2021/10/01 02:47:12;;;;;;;0.22;0.10;;;;;;;-142.37;100.00;59669.53;5015520;28;20057;-71
2021/10/01 02:49:40;;;;;;;0.38;0.10;;;;;;;-142.37;100.00;59669.53;5015494;28;20088;-69
2021/10/01 02:52:24;;;;;;;0.75;0.10;;;;;;;-142.37;100.00;59669.53;5015405;28;20037;-71
2021/10/01 02:55:35;;;;;;;0.73;0.20;;;;;;;-142.37;100.00;59669.53;5015210;28;20041;-70
2021/10/01 02:58:19;;;;;;;0.82;0.28;;;;;;;-142.37;100.00;59669.53;4975917;28;20090;-70
2021/10/01 03:00:45;;;;;;;0.17;0.13;;;;;;;-142.37;100.00;59669.53;4976255;28;20042;-71
2021/10/01 03:03:22;;;;;;;0.30;0.00;;;;;;;-142.37;100.00;59669.53;4975822;28;20201;-69
2021/10/01 03:05:51;;;;;;;0.45;0.22;;;;;;;-142.37;100.00;59669.53;4976059;28;20051;-72
2021/10/01 03:08:31;;;;;;;0.80;0.13;;;;;;;-142.37;100.00;59669.53;4979081;28;20038;-69
2021/10/01 03:11:13;;;;;;;0.50;0.20;;;;;;;-142.37;100.00;59669.53;4995269;28;20061;-71
2021/10/01 03:13:46;;;;;;;0.30;0.10;;;;;;;-142.37;100.00;59669.53;4995420;28;20034;-69
2021/10/01 03:16:12;;;;;;;1.37;0.10;;;;;;;-142.37;100.00;59669.53;4986841;28;20053;-71
2021/10/01 03:18:38;;;;;;;0.30;0.10;;;;;;;-142.37;100.00;59669.53;4995318;28;20284;-70
2021/10/01 03:21:05;;;;;;;0.47;0.13;;;;;;;-142.37;100.00;59669.53;4995146;28;20605;-71
2021/10/01 03:23:34;;;;;;;0.43;0.13;;;;;;;-142.37;100.00;59669.53;4994999;28;20036;-70
2021/10/01 03:26:01;;;;;;;0.15;0.00;;;;;;;-142.37;100.00;59669.53;4995153;28;20046;-71
2021/10/01 03:28:28;;;;;;;0.65;0.10;;;;;;;-142.37;100.00;59669.53;4994946;28;20030;-70
2021/10/01 03:30:59;;;;;;;0.38;0.10;;;;;;;-142.37;100.00;59669.53;5000154;28;20462;-70
2021/10/01 03:33:32;;;;;;;1.42;0.15;;;;;;;-142.37;100.00;59669.53;5036380;28;20092;-71
2021/10/01 03:35:59;;;;;;;1.17;0.30;;;;;;;-142.37;100.00;59669.53;5036290;28;20071;-71
2021/10/01 03:38:31;;;;;;;1.35;0.10;;;;;;;-142.37;100.00;59669.53;5036821;28;20026;-71
2021/10/01 03:40:59;;;;;;;0.57;0.20;;;;;;;-142.37;100.00;59669.53;5036172;28;20717;-70
2021/10/01 03:43:44;;;;;;;0.63;0.20;;;;;;;-142.37;100.00;59669.53;5035856;28;20495;-71
2021/10/01 03:46:10;;;;;;;;;;;;;;;-142.37;100.00;59669.53;4997042;28;20026;-70
2021/10/01 03:48:44;;;;;;;1.27;0.40;;;;;;;-142.37;100.00;59669.53;4996807;28;19996;-72
2021/10/01 03:51:11;;;;;;;0.10;0.10;;;;;;;-142.37;100.00;59669.53;4996630;28;20023;-70
2021/10/01 03:53:38;;;;;;;0.22;0.17;;;;;;;-142.37;100.00;59669.53;4996671;28;20739;-70
2021/10/01 03:56:08;;;;;;;0.45;0.10;;;;;;;-142.37;100.00;59669.53;5011720;28;20033;-70
2021/10/01 03:58:35;;;;;;;0.22;0.20;;;;;;;-142.37;100.00;59669.53;4996571;28;20026;-69
2021/10/01 04:01:10;;;;;;;1.15;0.32;;;;;;;-142.37;100.00;59669.53;4996469;28;20545;-70
2021/10/01 04:03:36;;;;;;;;;;;;;;;-142.37;100.00;59669.53;4996826;28;20068;-70
2021/10/01 04:06:04;;;;;;;1.48;0.22;;;;;;;-142.37;100.00;59669.53;4995275;28;20284;-71
2021/10/01 04:08:35;;;;;;;0.50;0.10;;;;;;;-142.37;100.00;59669.53;4996586;28;20022;-70
2021/10/01 04:11:03;;;;;;;1.20;0.20;;;;;;;-142.37;100.00;59669.53;4996430;28;20026;-71
2021/10/01 04:13:28;;;;;;;0.10;0.03;;;;;;;-142.37;100.00;59669.53;4996349;28;20054;-70
2021/10/01 04:16:02;;;;;;;1.65;0.30;;;;;;;-142.37;100.00;59669.53;4996290;28;20053;-71
2021/10/01 04:18:27;;;;;;;0.55;0.10;;;;;;;-142.37;100.00;59669.53;4996157;28;20441;-70
2021/10/01 04:21:03;;;;;;;0.50;0.10;;;;;;;-142.37;100.00;59669.53;4996109;28;20034;-70
2021/10/01 04:23:41;;;;;;;0.52;0.20;;;;;;;-142.37;100.00;59669.53;4996060;28;20529;-71
2021/10/01 04:26:08;;;;;;;0.47;0.13;;;;;;;-142.37;100.00;59669.53;4996167;28;20054;-69
2021/10/01 04:28:40;;;;;;;0.17;0.10;;;;;;;-142.37;100.00;59669.53;4996043;28;20097;-72
2021/10/01 04:31:14;;;;;;;0.65;0.20;;;;;;;-142.37;100.00;59669.53;4996004;28;20042;-69
2021/10/01 04:33:41;;;;;;;0.55;0.20;;;;;;;-142.37;100.00;59669.53;4996143;28;20073;-72
2021/10/01 04:36:09;;;;;;;0.13;0.08;;;;;;;-142.37;100.00;59669.53;4996739;28;20053;-70
2021/10/01 04:38:37;;;;;;;0.10;0.10;;;;;;;-142.37;100.00;59669.53;4995896;28;20030;-70
2021/10/01 04:41:03;;;;;;;0.90;0.15;;;;;;;-142.37;100.00;59669.53;4995942;28;20034;-71
2021/10/01 04:43:29;;;;;;;0.28;0.10;;;;;;;-142.37;100.00;59669.53;4995758;28;20174;-70
2021/10/01 04:45:56;;;;;;;0.90;0.10;;;;;;;-142.37;100.00;59669.53;4995842;28;20030;-71
2021/10/01 04:48:21;;;;;;;0.77;0.22;;;;;;;-142.37;100.00;59669.53;4995682;28;20037;-71
2021/10/01 04:50:47;;;;;;;0.22;0.10;;;;;;;-142.37;100.00;59669.53;4995699;28;20026;-71
2021/10/01 04:53:12;;;;;;;1.20;0.10;;;;;;;-142.37;100.00;59669.53;4994859;28;20026;-70
2021/10/01 04:55:46;;;;;;;0.10;0.00;;;;;;;-142.37;100.00;59669.53;4995321;28;20022;-70
2021/10/01 04:58:14;;;;;;;1.35;0.10;;;;;;;-142.37;100.00;59669.53;4995536;28;20028;-70
2021/10/01 05:00:40;;;;;;;0.43;0.10;;;;;;;-142.37;100.00;59669.53;4995146;28;20136;-69
2021/10/01 05:03:08;;;;;;;0.22;0.10;;;;;;;-142.37;100.00;59669.53;4995585;28;20450;-71
2021/10/01 05:05:33;;;;;;;0.10;0.08;;;;;;;-142.37;100.00;59669.53;4995262;28;20030;-69
2021/10/01 05:08:02;;;;;;;0.10;0.00;;;;;;;-142.37;100.00;59669.53;4995157;28;20106;-70
2021/10/01 05:10:27;;;;;;;0.77;0.10;;;;;;;-142.37;100.00;59669.53;4995271;28;20424;-70
2021/10/01 05:12:54;;;;;;;0.00;0.00;;;;;;;-142.37;100.00;59669.53;4995198;28;20097;-73
2021/10/01 05:15:22;;;;;;;0.20;0.00;;;;;;;-142.37;100.00;59669.53;4995038;28;20381;-71
2021/10/01 05:17:47;;;;;;;0.00;0.00;;;;;;;-142.37;100.00;59669.53;5009300;28;20053;-71
2021/10/01 05:20:14;;;;;;;0.17;0.03;;;;;;;-142.37;100.00;59669.53;5014374;28;20474;-72
2021/10/01 05:22:41;;;;;;;0.00;0.00;;;;;;;-142.37;100.00;59669.53;5023416;28;20025;-70
2021/10/01 05:25:08;;;;;;;0.05;0.05;;;;;;;-142.37;100.00;59669.53;5034479;28;20395;-72
2021/10/01 05:27:35;;;;;;;1.10;0.38;;;;;;;-142.37;100.00;59669.53;5034436;28;20422;-74
2021/10/01 05:30:21;;;;;;;0.35;0.13;;;;;;;-142.37;100.00;59669.53;5034406;28;20048;-72
2021/10/01 05:33:05;;;;;;;0.30;0.05;;;;;;;-142.37;100.00;59669.53;5034269;28;20044;-74
2021/10/01 05:35:36;;;;;;;0.60;0.30;;;;;;;-142.37;100.00;59669.53;5034369;28;20075;-73
2021/10/01 05:38:03;;;;;;;0.45;0.20;;;;;;;-142.37;100.00;59669.53;5034465;28;20026;-74
2021/10/01 05:40:35;;;;;;;0.10;0.00;;;;;;;-142.37;100.00;59669.53;5017930;28;20021;-73
2021/10/01 05:43:03;;;;;;;0.60;0.10;;;;;;;-142.37;100.00;59669.53;5034222;28;20036;-73
2021/10/01 05:45:40;;;;;;;0.10;0.10;;;;;;;-142.37;100.00;59669.53;5034147;28;20383;-74
2021/10/01 05:48:08;;;;;;;0.28;0.10;;;;;;;-142.37;100.00;59669.53;5034310;28;20104;-73
2021/10/01 05:50:39;;;;;;;1.00;0.15;;;;;;;-142.37;100.00;59669.53;5033917;28;20101;-74
2021/10/01 05:53:35;;;;;;;1.05;0.00;;;;;;;-142.37;100.00;59669.53;5034168;28;20033;-73
2021/10/01 05:56:08;;;;;;;0.20;0.10;;;;;;;-142.37;100.00;59669.53;5033894;28;20025;-73
2021/10/01 05:59:00;;;;;;;0.38;0.10;;;;;;;-142.37;100.00;59669.53;5034039;28;20079;-73
2021/10/01 06:01:26;;;;;;;0.28;0.08;;;;;;;-142.37;100.00;59669.53;5033813;28;20034;-73
2021/10/01 06:03:53;;;;;;;0.30;0.03;;;;;;;-142.37;100.00;59669.53;5034347;28;20025;-74
2021/10/01 06:06:28;;;;;;;0.15;0.10;;;;;;;-142.37;100.00;59669.53;5037585;28;20086;-73
2021/10/01 06:09:03;;;;;;;0.35;0.10;;;;;;;-142.37;100.00;59669.53;5038210;28;20057;-74
2021/10/01 06:11:29;;;;;;;0.45;0.10;;;;;;;-142.37;100.00;59669.53;5038009;28;20472;-72
2021/10/01 06:14:29;;;;;;;0.22;0.10;;;;;;;-142.37;100.00;59669.53;5038001;28;20030;-72
2021/10/01 06:16:55;;;;;;;0.28;0.10;;;;;;;-142.37;100.00;59669.53;4976767;28;20055;-73
2021/10/01 06:19:21;;;;;;;0.10;0.10;;;;;;;-142.37;100.00;59669.53;4977204;28;20041;-73
2021/10/01 06:21:47;;;;;;;0.10;0.00;;;;;;;-142.37;100.00;59669.53;4977037;28;20236;-73
2021/10/01 06:24:22;;;;;;;0.20;0.05;;;;;;;-142.37;100.00;59669.53;4976687;28;20027;-73
2021/10/01 06:26:49;;;;;;;1.02;0.30;;;;;;;-142.37;100.00;59669.53;4976999;28;20466;-72
2021/10/01 06:29:17;;;;;;;0.20;0.05;;;;;;;-142.37;100.00;59669.53;4958049;28;20498;-73
2021/10/01 06:31:44;;;;;;;0.20;0.10;;;;;;;-142.37;100.00;59669.53;4970697;28;20031;-73
2021/10/01 06:34:11;;;;;;;0.28;0.10;;;;;;;-142.37;100.00;59669.53;4976498;28;20034;-73
2021/10/01 06:36:49;;;;;;;1.15;0.40;;;;;;;-142.37;100.00;59669.53;4976481;28;20514;-73
2021/10/01 06:39:17;;;;;;;1.85;0.40;;;;;;;-142.37;100.00;59669.53;4976218;28;20174;-71
2021/10/01 06:41:44;;;;;;;0.22;0.10;;;;;;;-142.37;100.00;59669.53;4976383;28;20051;-73
2021/10/01 06:44:13;;;;;;;0.77;0.17;;;;;;;-142.37;100.00;59669.53;4976407;28;20027;-73
2021/10/01 06:46:59;;;;;;;0.68;0.20;;;;;;;-142.37;100.00;59669.53;4976252;28;20097;-72
2021/10/01 07:36:29;;;;;;;1.20;0.50;;;;;;;-142.37;100.00;59669.53;5036237;28;20548;-71
2021/10/01 07:39:18;;;;;;;0.10;0.10;;;;;;;-142.37;100.00;59669.53;5035740;28;20032;-72
2021/10/01 08:20:05;;;;;;;0.15;0.00;;;;;;;-142.37;100.00;59669.53;5035403;28;20044;-72
2021/10/01 08:22:32;;;;;;;0.25;0.05;;;;;;;-142.37;100.00;59669.53;5017374;28;20044;-71
2021/10/01 08:24:58;;;;;;;0.22;0.15;;;;;;;-142.37;100.00;59669.53;5034895;28;20423;-73
2021/10/01 08:27:25;;;;;;;0.77;0.10;;;;;;;-142.37;100.00;59669.53;5035208;28;20392;-72
2021/10/01 08:29:51;;;;;;;0.40;0.15;;;;;;;-142.37;100.00;59669.53;5032880;28;20022;-70
2021/10/01 08:32:17;;;;;;;0.43;0.10;;;;;;;-142.37;100.00;59669.53;5035101;28;20025;-72
2021/10/01 08:34:51;;;;;;;0.30;0.17;;;;;;;-142.37;100.00;59669.53;5035129;28;20071;-72
2021/10/01 08:37:17;;;;;;;0.75;0.10;;;;;;;-142.37;100.00;59669.53;5035150;28;20025;-71
2021/10/01 08:39:43;;;;;;;0.20;0.00;;;;;;;-142.37;100.00;59669.53;5034752;28;20033;-72
2021/10/01 08:42:08;;;;;;;0.90;0.10;;;;;;;-142.37;100.00;59669.53;5034367;28;20029;-72
2021/10/01 08:44:36;;;;;;;0.10;0.10;;;;;;;-142.37;100.00;59669.53;5020220;28;20460;-70
2021/10/01 08:47:10;;;;;;;0.32;0.20;;;;;;;-142.37;100.00;59669.53;5017139;28;20044;-73
2021/10/01 08:49:39;;;;;;;0.15;0.15;;;;;;;-142.37;100.00;59669.53;5034615;28;20021;-71
2021/10/01 08:52:06;;;;;;;0.00;0.00;;;;;;;-142.37;100.00;59669.53;5034792;28;20484;-72
2021/10/01 08:54:35;;;;;;;0.52;0.15;;;;;;;-142.37;100.00;59669.53;5034522;28;20132;-71
2021/10/01 08:57:04;;;;;;;0.15;0.00;;;;;;;-142.37;100.00;59669.53;5034454;28;20025;-72
2021/10/01 08:59:29;;;;;;;0.20;0.10;;;;;;;-142.37;100.00;59669.53;5017053;28;20044;-70
2021/10/01 09:02:00;;;;;;;0.10;0.10;;;;;;;-142.37;100.00;59669.53;5034433;28;20033;-71
2021/10/01 09:04:26;;;;;;;0.00;0.00;;;;;;;-142.37;100.00;59669.53;5034182;28;20022;-71
2021/10/01 09:06:52;;;;;;;0.17;0.10;;;;;;;-142.37;100.00;59669.53;5034363;28;20376;-71
2021/10/01 09:09:18;;;;;;;0.85;0.10;;;;;;;-142.37;100.00;59669.53;5034016;28;20029;-73
2021/10/01 09:11:45;;;;;;;0.30;0.10;;;;;;;-142.37;100.00;59669.53;5034405;28;20075;-73
2021/10/01 09:14:18;;;;;;;0.00;0.00;;;;;;;-142.37;100.00;59669.53;5016988;28;20064;-71
2021/10/01 09:16:43;;;;;;;0.22;0.00;;;;;;;-142.37;100.00;59669.53;5033460;28;20527;-73
2021/10/01 09:19:09;;;;;;;0.57;0.10;;;;;;;-142.37;100.00;59669.53;5034507;28;20025;-71
2021/10/01 09:21:47;;;;;;;0.68;0.03;;;;;;;-142.37;100.00;59669.53;5016682;28;20044;-71
2021/10/01 09:24:28;;;;;;;0.45;0.20;;;;;;;-142.37;100.00;59669.53;5034377;28;20021;-72
2021/10/01 09:27:09;;;;;;;0.10;0.10;;;;;;;-142.37;100.00;59669.53;5034513;28;20044;-72
2021/10/01 09:29:37;;;;;;;0.90;0.13;;;;;;;-142.37;100.00;59669.53;5016891;28;20021;-71
2021/10/01 09:32:16;;;;;;;1.98;0.10;;;;;;;-142.37;100.00;59669.53;5019416;28;20028;-75
2021/10/01 09:34:48;;;;;;;0.60;0.05;;;;;;;-142.37;100.00;59669.53;5034320;28;20163;-70
2021/10/01 09:37:32;;;;;;;0.28;0.20;;;;;;;-142.37;100.00;59669.53;5016648;28;20056;-73
2021/10/01 09:40:08;;;;;;;0.00;0.00;;;;;;;-142.37;100.00;59669.53;5034018;28;20057;-71
2021/10/01 09:43:00;;;;;;;0.43;0.10;;;;;;;-142.37;100.00;59669.53;5033808;28;20480;-73
2021/10/01 09:45:27;;;;;;;0.38;0.00;;;;;;;-142.37;100.00;59669.53;4934983;29;20132;-72
2021/10/01 09:47:55;;;;;;;0.80;0.13;;;;;;;-142.37;100.00;59669.53;4949012;29;20043;-72
2021/10/01 09:50:36;;;;;;;0.47;0.00;;;;;;;-142.37;100.00;59669.53;4953890;29;20035;-72
2021/10/01 09:53:05;;;;;;;0.30;0.10;;;;;;;-142.37;100.00;59669.53;4936480;29;20027;-71
2021/10/01 09:55:41;;;;;;;0.43;0.22;;;;;;;-142.37;100.00;59669.53;4935193;29;20032;-74
2021/10/01 09:58:13;;;;;;;0.95;0.10;;;;;;;-142.37;100.00;59669.53;4953724;29;20031;-71
2021/10/01 10:00:54;;;;;;;0.00;0.00;;;;;;;-142.37;100.00;59669.53;4953481;29;20031;-71
2021/10/01 10:03:32;;;;;;;0.30;0.10;;;;;;;-142.37;100.00;59669.53;4953066;29;20175;-71
2021/10/01 10:06:14;;;;;;;0.00;0.00;;;;;;;-142.37;100.00;59669.53;4953338;29;20074;-73
2021/10/01 10:09:31;;;;;;;0.35;0.00;;;;;;;-142.37;100.00;59669.53;4953232;29;20046;-72
2021/10/01 10:11:58;;;;;;;0.35;0.10;;;;;;;-142.37;100.00;59669.53;4896682;29;20527;-71
2021/10/01 10:14:23;;;;;;;2.10;0.13;;;;;;;-142.37;100.00;59669.53;4896488;29;20389;-72
2021/10/01 10:16:58;;;;;;;0.85;0.10;;;;;;;-142.37;100.00;59669.53;4896909;29;20044;-71
2021/10/01 10:19:24;;;;;;;0.17;0.10;;;;;;;-142.37;100.00;59669.53;4897865;29;20053;-72
2021/10/01 10:21:59;;;;;;;0.15;0.15;;;;;;;-142.37;100.00;59669.53;4916204;29;20050;-72
2021/10/01 10:24:26;;;;;;;0.50;0.10;;;;;;;-142.37;100.00;59669.53;4937631;29;20118;-72
2021/10/01 10:27:05;;;;;;;0.68;0.08;;;;;;;-142.37;100.00;59669.53;4953761;29;20043;-71
2021/10/01 10:29:47;;;;;;;0.40;0.10;;;;;;;-142.37;100.00;59669.53;4953722;29;20033;-73
2021/10/01 10:32:32;;;;;;;0.35;0.30;;;;;;;-142.37;100.00;59669.53;4953684;29;20039;-72
2021/10/01 10:35:02;;;;;;;0.10;0.08;;;;;;;-142.37;100.00;59669.53;4953563;29;20033;-71
2021/10/01 10:37:54;;;;;;;0.17;0.10;;;;;;;-142.37;100.00;59669.53;4953573;29;20114;-72
2021/10/01 10:40:21;;;;;;;1.00;0.10;;;;;;;-142.37;100.00;59669.53;4937849;29;20057;-72
2021/10/01 10:42:50;;;;;;;0.03;0.00;;;;;;;-142.37;100.00;59669.53;4954122;29;20130;-72
2021/10/01 10:45:45;;;;;;;0.10;0.10;;;;;;;-142.37;100.00;59669.53;4967089;28;20045;-72
2021/10/01 10:48:18;;;;;;;0.10;0.03;;;;;;;-142.37;100.00;59669.53;4994379;28;20018;-73
2021/10/01 10:50:55;;;;;;;0.60;0.10;;;;;;;-142.37;100.00;59669.53;4994228;28;20054;-72
2021/10/01 10:53:28;;;;;;;0.35;0.10;;;;;;;-142.37;100.00;59669.53;4997447;28;20030;-73
2021/10/01 10:55:58;;;;;;;0.30;0.15;;;;;;;-142.37;100.00;59669.53;4997916;28;20033;-72
2021/10/01 11:01:23;;;;;;;0.10;0.10;;;;;;;-142.37;100.00;59669.53;4997979;28;20038;-71
2021/10/01 11:04:19;;;;;;;0.40;0.10;;;;;;;-142.37;100.00;59669.53;4956897;29;20039;-72
2021/10/01 11:06:45;;;;;;;0.00;0.00;;;;;;;-142.37;100.00;59669.53;4957143;29;20035;-72
2021/10/01 11:09:32;;;;;;;0.20;0.10;;;;;;;-142.37;100.00;59669.53;4957089;29;20504;-72
2021/10/01 11:12:22;;;;;;;0.00;0.00;;;;;;;-142.37;100.00;59669.53;4956621;29;20397;-71
2021/10/01 11:15:11;;;;;;;0.00;0.00;;;;;;;-142.37;100.00;59669.53;4956853;29;20485;-70
2021/10/01 11:17:37;;;;;;;0.30;0.17;;;;;;;-142.37;100.00;59669.53;4958238;28;20055;-73
2021/10/01 11:20:03;;;;;;;0.20;0.10;;;;;;;-142.37;100.00;59669.53;4956793;29;20043;-70
2021/10/01 11:22:38;;;;;;;0.35;0.30;;;;;;;-142.37;100.00;59669.53;4940461;29;20034;-71
2021/10/01 11:25:12;;;;;;;0.47;0.10;;;;;;;-142.37;100.00;59669.53;4940488;29;20467;-71
2021/10/01 11:27:57;;;;;;;0.00;0.00;;;;;;;-142.37;100.00;59669.53;4957235;29;20130;-72
2021/10/01 11:30:26;;;;;;;0.30;0.08;;;;;;;-142.37;100.00;59669.53;4956479;29;20398;-71
2021/10/01 11:33:17;;;;;;;0.10;0.10;;;;;;;-142.37;100.00;59669.53;4958943;29;20439;-71
2021/10/01 11:35:50;;;;;;;0.22;0.10;;;;;;;-142.37;100.00;59669.53;4956520;29;20130;-71
2021/10/01 11:38:49;;;;;;;0.73;0.20;;;;;;;-142.37;100.00;59669.53;4956348;29;20101;-72
2021/10/01 11:41:16;;;;;;;0.10;0.00;;;;;;;-142.37;100.00;59669.53;4995157;28;20070;-71
2021/10/01 11:43:55;;;;;;;0.30;0.25;;;;;;;-142.37;100.00;59669.53;4996853;28;20023;-72
2021/10/01 11:46:37;;;;;;;0.60;0.10;;;;;;;-142.37;100.00;59669.53;4996538;28;20035;-71
2021/10/01 11:49:39;;;;;;;0.98;0.20;;;;;;;-142.37;100.00;59669.53;4996662;28;20034;-72
2021/10/01 11:52:17;;;;;;;0.35;0.00;;;;;;;-142.37;100.00;59669.53;4953489;29;20522;-72
2021/10/01 11:54:59;;;;;;;0.25;0.00;;;;;;;-142.37;100.00;59669.53;4956024;29;20518;-71
2021/10/01 11:57:46;;;;;;;0.10;0.10;;;;;;;-142.37;100.00;59669.53;4939934;29;20039;-72
2021/10/01 12:00:18;;;;;;;1.00;0.10;;;;;;;-142.37;100.00;59669.53;4936653;29;20119;-72
2021/10/01 12:02:49;;;;;;;0.50;0.20;;;;;;;-142.37;100.00;59669.53;4936535;29;20364;-73
2021/10/01 12:05:45;;;;;;;0.20;0.10;;;;;;;-142.37;100.00;59669.53;4936503;29;20034;-71
2021/10/01 12:08:11;;;;;;;0.40;0.08;;;;;;;-142.37;100.00;59669.53;4936572;29;20031;-71
2021/10/01 12:10:49;;;;;;;0.88;0.15;;;;;;;-142.37;100.00;59669.53;4936579;29;20078;-71
2021/10/01 12:13:29;;;;;;;1.00;0.20;;;;;;;-142.37;100.00;59669.53;4935672;29;20038;-72
2021/10/01 12:16:04;;;;;;;1.10;0.10;;;;;;;-142.37;100.00;59669.53;4936572;29;20384;-72
2021/10/01 12:18:42;;;;;;;0.35;0.08;;;;;;;-142.37;100.00;59669.53;4936168;29;20048;-72
2021/10/01 12:21:16;;;;;;;0.88;0.20;;;;;;;-142.37;100.00;59669.53;4936204;29;20032;-72
2021/10/01 12:24:06;;;;;;;;;;;;;;;-142.37;100.00;59669.53;4936714;29;20035;-72
2021/10/01 12:26:44;;;;;;;0.10;0.00;;;;;;;-142.37;100.00;59669.53;4979665;28;19924;-73
2021/10/01 12:29:12;;;;;;;0.32;0.10;;;;;;;-142.37;100.00;59669.53;5006782;28;20054;-72
2021/10/01 12:32:00;;;;;;;0.30;0.10;;;;;;;-142.37;100.00;59669.53;5015600;28;20036;-72
2021/10/01 12:34:52;;;;;;;0.08;0.08;;;;;;;-142.37;100.00;59669.53;5014375;28;20683;-72
2021/10/01 12:37:21;;;;;;;0.15;0.00;;;;;;;-142.37;100.00;59669.53;4996000;28;20425;-72
2021/10/01 12:39:58;;;;;;;0.20;0.10;;;;;;;-142.37;100.00;59669.53;4995862;28;20022;-72
2021/10/01 12:42:39;;;;;;;1.65;0.20;;;;;;;-142.37;100.00;59669.53;5010840;28;20354;-73
2021/10/01 12:45:20;;;;;;;0.30;0.00;;;;;;;-142.37;100.00;59669.53;5015327;28;20105;-72
2021/10/01 12:48:17;;;;;;;0.20;0.10;;;;;;;-142.37;100.00;59669.53;5015446;28;20076;-72
2021/10/01 12:51:01;;;;;;;0.50;0.00;;;;;;;-142.37;100.00;59669.53;4954880;29;20193;-73
2021/10/01 12:53:29;;;;;;;0.20;0.20;;;;;;;-142.37;100.00;59669.53;4956206;29;20035;-70
2021/10/01 12:56:30;;;;;;;0.55;0.10;;;;;;;-142.37;100.00;59669.53;4955323;29;20547;-73
2021/10/01 12:58:57;;;;;;;0.95;0.30;;;;;;;-142.37;100.00;59669.53;4955029;29;20031;-71
2021/10/01 13:01:37;;;;;;;0.60;0.10;;;;;;;-142.37;100.00;59669.53;4965831;28;20070;-74
2021/10/01 13:04:03;;;;;;;0.15;0.03;;;;;;;-142.37;100.00;59669.53;4951720;28;20041;-71
2021/10/01 13:06:37;;;;;;;0.40;0.08;;;;;;;-142.37;100.00;59669.53;4973988;28;20030;-74
2021/10/01 13:12:34;;;;;;;0.57;0.10;;;;;;;-142.37;100.00;59669.53;4974248;28;20066;-71